Time;durP1;ratioP1;P1;durP2;ratioP2;P2;SDS_P1;SDS_P2;PMS_P1;PMS_P2;Temp;Humidity;BMP_temperature;BMP_pressure;BME280_temperature;BME280_humidity;BME280_pressure;Samples;Min_cycle;Max_cycle;Signal;HPM_P1;HPM_P2
2022/08/08 00:01:32;;;;;;;2.85;2.55;;;;;;;14.77;100.00;102516.56;6188149;23;20017;-83
2022/08/08 00:04:40;;;;;;;4.25;2.70;;;;;;;14.75;100.00;102520.97;6177561;23;20021;-83
2022/08/08 00:07:33;;;;;;;5.50;3.30;;;;;;;14.73;100.00;102522.72;6184506;23;20025;-82
2022/08/08 00:10:13;;;;;;;4.65;3.28;;;;;;;14.73;100.00;102520.06;6189075;23;20021;-83
2022/08/08 00:12:49;;;;;;;3.85;2.80;;;;;;;14.72;100.00;102523.59;6177216;23;20472;-83
2022/08/08 00:15:30;;;;;;;4.10;3.15;;;;;;;14.72;100.00;102530.66;6182181;23;20138;-82
2022/08/08 00:18:41;;;;;;;6.18;3.25;;;;;;;14.70;100.00;102527.97;6187825;23;20017;-83
2022/08/08 00:21:25;;;;;;;4.70;3.22;;;;;;;14.69;100.00;102525.28;6159922;23;20028;-83
2022/08/08 00:24:00;;;;;;;5.00;3.10;;;;;;;14.67;100.00;102520.00;6176435;23;20031;-82
2022/08/08 00:26:41;;;;;;;3.33;3.03;;;;;;;14.66;100.00;102531.47;6177699;23;20012;-83
2022/08/08 00:29:28;;;;;;;6.55;3.00;;;;;;;14.64;100.00;102525.25;6176735;23;20025;-83
2022/08/08 00:32:26;;;;;;;5.72;3.40;;;;;;;14.60;100.00;102526.97;6161327;23;20017;-83
2022/08/08 00:35:28;;;;;;;7.28;3.08;;;;;;;14.58;100.00;102522.53;6187347;23;20017;-83
2022/08/08 00:38:07;;;;;;;5.95;3.65;;;;;;;14.56;100.00;102525.13;6164401;23;20028;-82
2022/08/08 00:41:23;;;;;;;4.78;3.42;;;;;;;14.54;100.00;102521.56;6184730;23;20347;-82
2022/08/08 00:44:26;;;;;;;3.50;3.20;;;;;;;14.53;100.00;102525.06;6172244;23;20500;-83
2022/08/08 00:46:55;;;;;;;;;;;;;;;14.49;100.00;102523.25;6190396;23;20116;-81
2022/08/08 00:49:41;;;;;;;5.13;3.28;;;;;;;14.46;100.00;102528.53;6183508;23;19916;-82
2022/08/08 00:53:03;;;;;;;4.63;3.10;;;;;;;14.45;100.00;102531.16;6187192;23;20020;-83
2022/08/08 00:55:59;;;;;;;15.73;4.45;;;;;;;14.45;100.00;102525.84;6185994;23;20021;-82
2022/08/08 00:59:17;;;;;;;4.10;3.70;;;;;;;14.47;100.00;102524.09;6178845;23;20020;-81
2022/08/08 01:02:38;;;;;;;5.25;3.55;;;;;;;14.52;100.00;102533.03;6098026;23;20113;-77
2022/08/08 01:06:05;;;;;;;5.55;3.60;;;;;;;14.55;100.00;102527.75;6109506;23;20033;-76
2022/08/08 01:09:03;;;;;;;3.63;3.20;;;;;;;14.58;100.00;102527.84;6087003;23;20048;-77
2022/08/08 01:12:28;;;;;;;7.90;3.95;;;;;;;14.59;100.00;102532.25;6105505;23;20128;-76
2022/08/08 01:15:22;;;;;;;3.65;3.35;;;;;;;14.62;100.00;102529.66;6102676;23;20022;-77
2022/08/08 01:18:22;;;;;;;5.70;3.20;;;;;;;14.62;100.00;102525.22;6119193;23;20443;-77
2022/08/08 01:21:31;;;;;;;4.90;3.50;;;;;;;14.62;100.00;102522.56;6123281;23;20021;-77
2022/08/08 01:24:46;;;;;;;5.43;3.50;;;;;;;14.61;100.00;102523.47;6115335;23;20025;-76
2022/08/08 01:28:02;;;;;;;5.22;3.63;;;;;;;14.60;100.00;102523.44;6113310;23;20010;-77
2022/08/08 01:30:54;;;;;;;5.80;4.00;;;;;;;14.58;100.00;102525.19;6089573;23;20328;-76
2022/08/08 01:33:50;;;;;;;9.60;3.92;;;;;;;14.56;100.00;102526.88;6117064;23;20032;-77
2022/08/08 01:36:58;;;;;;;5.03;3.83;;;;;;;14.54;100.00;102520.69;6124473;23;20017;-77
2022/08/08 01:39:55;;;;;;;5.32;3.50;;;;;;;14.53;100.00;102521.53;6114926;23;20337;-77
2022/08/08 01:42:31;;;;;;;7.22;4.07;;;;;;;14.53;100.00;102518.88;6094980;23;20289;-77
2022/08/08 01:45:56;;;;;;;5.53;3.95;;;;;;;14.52;100.00;102518.00;6118003;23;20148;-77
2022/08/08 01:48:38;;;;;;;5.28;3.88;;;;;;;14.53;100.00;102519.75;6101173;23;20028;-76
2022/08/08 01:51:39;;;;;;;7.70;4.32;;;;;;;14.54;100.00;102518.03;6108308;23;20014;-76
2022/08/08 01:54:31;;;;;;;6.47;3.88;;;;;;;14.56;100.00;102519.81;6123211;23;20017;-78
2022/08/08 01:57:32;;;;;;;5.35;4.03;;;;;;;14.57;100.00;102519.00;6119156;23;20474;-76
2022/08/08 02:00:31;;;;;;;7.85;4.57;;;;;;;14.60;100.00;102523.44;6086108;23;20486;-76
2022/08/08 02:03:44;;;;;;;6.55;4.43;;;;;;;14.62;100.00;102519.03;6164411;23;20040;-76
2022/08/08 02:07:02;;;;;;;4.80;4.40;;;;;;;14.64;100.00;102525.25;6153827;23;20242;-76
2022/08/08 02:09:50;;;;;;;6.50;4.05;;;;;;;14.68;100.00;102523.53;6160277;23;20024;-76
2022/08/08 02:12:56;;;;;;;5.50;4.00;;;;;;;14.71;100.00;102528.91;6179002;23;20051;-77
2022/08/08 02:15:37;;;;;;;7.63;4.55;;;;;;;14.72;100.00;102533.31;6177660;23;20605;-76
2022/08/08 02:18:31;;;;;;;4.88;4.47;;;;;;;14.74;100.00;102534.22;6159534;23;20013;-77
2022/08/08 02:24:22;;;;;;;5.40;3.67;;;;;;;14.77;100.00;102532.50;6181574;23;20024;-76
2022/08/08 02:27:06;;;;;;;6.55;4.10;;;;;;;14.77;100.00;102537.81;6170654;23;20017;-76
2022/08/08 02:29:47;;;;;;;7.00;4.93;;;;;;;14.78;100.00;102533.38;6150727;23;20025;-76
2022/08/08 02:32:34;;;;;;;5.82;5.00;;;;;;;14.78;100.00;102528.06;6132119;23;20485;-77
2022/08/08 02:35:40;;;;;;;8.98;3.85;;;;;;;14.80;100.00;102528.97;6180230;23;20021;-77
2022/08/08 02:38:42;;;;;;;6.68;4.05;;;;;;;14.81;100.00;102526.34;6146504;23;20052;-77
2022/08/08 02:41:32;;;;;;;5.00;4.43;;;;;;;14.84;100.00;102533.47;6179394;23;20032;-77
2022/08/08 02:44:36;;;;;;;6.60;4.90;;;;;;;14.86;100.00;102528.16;6174641;23;20040;-77
2022/08/08 02:47:46;;;;;;;5.57;4.97;;;;;;;14.88;100.00;102522.03;6148717;23;20021;-77
2022/08/08 02:51:08;;;;;;;6.90;4.47;;;;;;;14.89;100.00;102520.25;6158463;23;20230;-77
2022/08/08 02:53:45;;;;;;;7.78;4.80;;;;;;;14.92;100.00;102528.25;6154320;23;20021;-77
2022/08/08 02:56:39;;;;;;;4.82;4.32;;;;;;;14.95;100.00;102530.94;6178099;23;20044;-77
2022/08/08 02:59:45;;;;;;;5.27;4.80;;;;;;;14.97;100.00;102529.19;6173314;23;20021;-77
2022/08/08 03:02:53;;;;;;;6.78;4.32;;;;;;;14.97;100.00;102532.75;6156326;23;20369;-76
2022/08/08 03:05:23;;;;;;;7.07;5.13;;;;;;;14.99;100.00;102532.78;6145587;23;20020;-76
2022/08/08 03:08:32;;;;;;;5.68;4.72;;;;;;;15.00;100.00;102535.44;6177698;23;20473;-77
2022/08/08 03:11:23;;;;;;;7.28;4.88;;;;;;;15.01;100.00;102539.00;6180997;23;20017;-76
2022/08/08 03:14:46;;;;;;;7.30;5.10;;;;;;;15.01;100.00;102534.56;6152164;23;20139;-77
2022/08/08 03:17:44;;;;;;;9.23;5.13;;;;;;;15.04;100.00;102540.78;6140497;23;20461;-76
2022/08/08 03:20:51;;;;;;;6.60;5.22;;;;;;;15.02;100.00;102541.63;6153107;23;20048;-76
2022/08/08 03:23:24;;;;;;;7.40;4.72;;;;;;;15.04;100.00;102532.81;6176851;23;20726;-77
2022/08/08 03:26:07;;;;;;;7.90;4.55;;;;;;;15.05;100.00;102535.50;6158793;23;20021;-76
2022/08/08 03:28:46;;;;;;;7.63;5.32;;;;;;;15.06;100.00;102541.69;6155705;23;20458;-76
2022/08/08 03:34:29;;;;;;;6.47;4.82;;;;;;;15.05;100.00;102540.81;6136377;23;20127;-76
2022/08/08 03:36:59;;;;;;;9.30;4.85;;;;;;;15.05;100.00;102543.47;6182874;23;20020;-75
2022/08/08 03:39:36;;;;;;;7.70;5.20;;;;;;;15.04;100.00;102541.66;6176326;23;20040;-76
2022/08/08 03:42:24;;;;;;;4.85;4.45;;;;;;;15.04;100.00;102549.63;6151655;23;20048;-77
2022/08/08 03:45:22;;;;;;;10.35;5.50;;;;;;;15.05;100.00;102551.44;6175721;23;20021;-78
2022/08/08 03:48:13;;;;;;;8.10;4.68;;;;;;;15.05;100.00;102548.78;6160806;23;20402;-77
2022/08/08 03:51:05;;;;;;;10.82;5.43;;;;;;;15.07;100.00;102544.38;6182803;23;20020;-77
2022/08/08 03:53:36;;;;;;;9.43;5.05;;;;;;;15.06;100.00;102542.56;6184199;23;20021;-76
2022/08/08 03:56:17;;;;;;;10.05;5.35;;;;;;;15.08;100.00;102548.78;6140258;23;20221;-76
2022/08/08 03:59:02;;;;;;;7.03;4.88;;;;;;;15.06;100.00;102549.66;6161484;23;20028;-76
2022/08/08 04:01:40;;;;;;;10.75;5.80;;;;;;;15.04;100.00;102551.41;6177804;23;20028;-76
2022/08/08 04:04:35;;;;;;;7.75;5.60;;;;;;;15.02;100.00;102551.38;6162269;23;20201;-77
2022/08/08 04:07:04;;;;;;;9.02;5.75;;;;;;;14.99;100.00;102556.66;6180559;23;20028;-77
2022/08/08 04:09:38;;;;;;;8.15;5.10;;;;;;;14.97;100.00;102561.03;6103004;23;20021;-77
2022/08/08 04:12:27;;;;;;;10.75;5.32;;;;;;;14.98;100.00;102560.19;6160414;23;20032;-77
2022/08/08 04:14:56;;;;;;;9.60;5.40;;;;;;;14.98;100.00;102563.72;6160585;23;20017;-77
2022/08/08 04:17:27;;;;;;;;;;;;;;;15.01;100.00;102562.88;6155220;23;20013;-77
2022/08/08 04:20:15;;;;;;;7.38;5.32;;;;;;;15.02;100.00;102564.66;6150248;23;19916;-77
2022/08/08 04:22:46;;;;;;;7.55;4.93;;;;;;;15.03;100.00;102558.47;6161415;23;20337;-77
2022/08/08 04:25:20;;;;;;;9.07;5.70;;;;;;;15.06;100.00;102560.28;6141683;23;20255;-76
2022/08/08 04:27:58;;;;;;;9.60;5.45;;;;;;;15.08;100.00;102556.75;6160604;23;20027;-77
2022/08/08 04:30:48;;;;;;;9.30;5.38;;;;;;;15.10;100.00;102560.31;6186206;23;20021;-76
2022/08/08 04:33:16;;;;;;;13.68;5.53;;;;;;;15.13;100.00;102560.34;6164385;23;20488;-77
2022/08/08 04:35:45;;;;;;;6.82;5.60;;;;;;;15.14;100.00;102559.50;6116131;23;20017;-77
2022/08/08 04:38:20;;;;;;;7.93;5.40;;;;;;;15.15;100.00;102557.72;6148553;23;20028;-77
2022/08/08 04:40:52;;;;;;;6.55;4.97;;;;;;;15.18;100.00;102560.44;6185052;23;20025;-77
2022/08/08 04:43:23;;;;;;;5.85;4.90;;;;;;;15.20;100.00;102561.34;6150570;23;20234;-76
2022/08/08 04:46:15;;;;;;;8.73;5.60;;;;;;;15.24;100.00;102556.97;6180788;23;20385;-78
2022/08/08 04:48:46;;;;;;;11.05;5.00;;;;;;;15.26;100.00;102555.19;6153398;23;20024;-77
2022/08/08 04:51:15;;;;;;;6.22;4.88;;;;;;;15.29;100.00;102560.53;6160424;23;20021;-77
2022/08/08 04:54:04;;;;;;;7.75;5.22;;;;;;;15.32;100.00;102558.81;6172442;23;20341;-77
2022/08/08 04:56:55;;;;;;;10.23;5.65;;;;;;;15.39;100.00;102565.09;6159496;23;20021;-77
2022/08/08 04:59:25;;;;;;;9.68;5.18;;;;;;;15.43;100.00;102560.69;6182890;23;20052;-78
2022/08/08 05:01:59;;;;;;;8.68;5.53;;;;;;;15.47;100.00;102558.06;6149608;23;20024;-76
2022/08/08 05:04:28;;;;;;;9.33;5.37;;;;;;;15.49;100.00;102566.94;6178672;23;20652;-77
2022/08/08 05:06:57;;;;;;;10.95;5.68;;;;;;;15.50;100.00;102566.09;6139411;23;20013;-76
2022/08/08 05:09:25;;;;;;;8.10;5.18;;;;;;;15.53;100.00;102563.44;6182356;23;20226;-76
2022/08/08 05:11:56;;;;;;;10.23;4.95;;;;;;;15.55;100.00;102564.34;6159239;23;20032;-77
2022/08/08 05:14:30;;;;;;;6.68;5.55;;;;;;;15.59;100.00;102570.59;6147695;23;20025;-77
2022/08/08 05:17:04;;;;;;;10.73;5.40;;;;;;;15.61;100.00;102571.50;6158069;23;20028;-75
2022/08/08 05:19:38;;;;;;;9.02;5.65;;;;;;;15.65;100.00;102580.38;6156364;23;20028;-77
2022/08/08 05:22:33;;;;;;;6.47;5.03;;;;;;;15.70;100.00;102584.88;6147108;23;20025;-77
2022/08/08 05:25:04;;;;;;;9.55;5.70;;;;;;;15.73;100.00;102584.94;6157904;23;20025;-75
2022/08/08 05:27:32;;;;;;;10.73;5.07;;;;;;;15.73;100.00;102590.25;6168638;23;20032;-76
2022/08/08 05:30:12;;;;;;;5.72;4.90;;;;;;;15.74;100.00;102583.16;6169379;23;20020;-76
2022/08/08 05:32:49;;;;;;;10.48;5.32;;;;;;;15.73;100.00;102590.25;6161199;23;20466;-76
2022/08/08 05:35:22;;;;;;;5.40;4.90;;;;;;;15.75;100.00;102593.81;6151723;23;20203;-76
2022/08/08 05:38:02;;;;;;;7.47;5.85;;;;;;;15.78;100.00;102588.53;6155008;23;20021;-76
2022/08/08 05:40:51;;;;;;;7.90;5.22;;;;;;;15.82;100.00;102599.19;6162957;23;20021;-76
2022/08/08 05:43:29;;;;;;;11.15;5.22;;;;;;;15.84;100.00;102593.03;6147756;23;20021;-76
2022/08/08 05:46:20;;;;;;;7.80;4.80;;;;;;;15.89;100.00;102607.22;6160195;23;20044;-76
2022/08/08 05:48:53;;;;;;;8.57;4.60;;;;;;;15.92;100.00;102601.94;6168772;23;20021;-76
2022/08/08 05:51:26;;;;;;;9.70;4.78;;;;;;;16.02;100.00;102599.38;6153120;23;20055;-76
2022/08/08 05:54:16;;;;;;;8.80;4.97;;;;;;;16.10;100.00;102587.91;6152932;23;20358;-75
2022/08/08 05:57:13;;;;;;;8.77;4.40;;;;;;;16.21;100.00;102592.44;6171584;23;20013;-75
2022/08/08 05:59:50;;;;;;;8.18;4.18;;;;;;;16.29;100.00;102591.59;6170152;23;20013;-75
2022/08/08 06:05:54;;;;;;;7.75;4.05;;;;;;;16.56;100.00;102600.66;6163993;23;20032;-75
2022/08/08 06:08:35;;;;;;;6.18;4.13;;;;;;;16.62;100.00;102590.03;6154369;23;20029;-75
2022/08/08 06:11:09;;;;;;;6.43;4.00;;;;;;;16.69;100.00;102596.28;6178191;23;20017;-76
2022/08/08 06:13:49;;;;;;;6.75;3.90;;;;;;;16.72;100.00;102605.19;6160495;23;20020;-75
2022/08/08 06:16:21;;;;;;;6.63;3.75;;;;;;;16.76;100.00;102601.66;6172750;23;20131;-75
2022/08/08 06:19:15;;;;;;;8.75;4.10;;;;;;;16.83;100.00;102604.41;6165972;23;20568;-77
2022/08/08 06:21:48;;;;;;;9.02;4.50;;;;;;;16.87;100.00;102592.88;6167390;23;20362;-76
2022/08/08 06:24:39;;;;;;;9.13;3.72;;;;;;;16.95;100.00;102600.00;6147909;23;20021;-76
2022/08/08 06:27:21;;;;;;;10.23;4.05;;;;;;;17.06;100.00;102600.06;6148998;23;20017;-76
2022/08/08 06:30:11;;;;;;;9.38;4.15;;;;;;;17.22;100.00;102608.09;6149955;23;20449;-76
2022/08/08 06:32:58;;;;;;;6.75;3.75;;;;;;;17.37;100.00;102613.47;6176489;23;20629;-76
2022/08/08 06:35:30;;;;;;;8.88;3.55;;;;;;;17.49;100.00;102608.19;6175027;23;20025;-76
2022/08/08 06:38:22;;;;;;;5.30;2.90;;;;;;;17.63;100.00;102610.88;6175423;23;20017;-77
2022/08/08 06:41:04;;;;;;;6.10;3.20;;;;;;;17.73;100.00;102614.44;6146802;23;20025;-76
2022/08/08 06:43:36;;;;;;;4.57;3.15;;;;;;;17.84;100.00;102612.72;6171159;23;20028;-77
2022/08/08 06:46:13;;;;;;;7.22;3.13;;;;;;;17.98;100.00;102617.19;6176305;23;20410;-77
2022/08/08 06:48:48;;;;;;;8.60;3.30;;;;;;;18.09;100.00;102613.63;6171691;23;20203;-77
2022/08/08 06:51:20;;;;;;;9.95;3.15;;;;;;;18.20;100.00;102610.94;6160611;23;20024;-76
2022/08/08 06:53:50;;;;;;;7.55;2.90;;;;;;;18.26;100.00;102616.31;6174055;23;20139;-76
2022/08/08 06:56:33;;;;;;;4.22;3.00;;;;;;;18.30;100.00;102614.53;6107165;23;20017;-76
2022/08/08 06:59:03;;;;;;;6.10;2.67;;;;;;;18.31;100.00;102619.81;6182377;23;20028;-76
2022/08/08 07:01:50;;;;;;;3.83;2.90;;;;;;;18.29;100.00;102613.59;6173830;23;20021;-77
2022/08/08 07:04:52;;;;;;;4.60;2.33;;;;;;;18.30;100.00;102615.41;6169840;23;20024;-77
2022/08/08 07:07:51;;;;;;;5.93;2.35;;;;;;;18.34;100.00;102607.41;6176518;23;20039;-77
2022/08/08 07:10:28;;;;;;;8.25;2.53;;;;;;;18.36;100.00;102614.50;6142040;23;20025;-76
2022/08/08 07:13:06;;;;;;;6.28;2.75;;;;;;;18.37;100.00;102616.25;6137252;23;20470;-77
2022/08/08 07:16:02;;;;;;;5.85;2.80;;;;;;;18.40;100.00;102615.41;6159983;23;20327;-76
2022/08/08 07:18:38;;;;;;;11.68;3.28;;;;;;;18.41;100.00;102618.06;6144961;23;20462;-76
2022/08/08 07:21:16;;;;;;;4.55;2.30;;;;;;;18.43;100.00;102616.28;6168895;23;20324;-76
2022/08/08 07:23:59;;;;;;;3.40;2.53;;;;;;;18.45;100.00;102614.50;6166624;23;20013;-76
2022/08/08 07:26:39;;;;;;;6.63;3.03;;;;;;;18.44;100.00;102619.84;6162073;23;20377;-76
2022/08/08 07:29:10;;;;;;;7.45;2.67;;;;;;;18.46;100.00;102623.38;6178916;23;20017;-77
2022/08/08 07:31:59;;;;;;;6.72;2.88;;;;;;;18.49;100.00;102626.06;6154144;23;20021;-77
2022/08/08 07:34:32;;;;;;;9.23;2.80;;;;;;;18.56;100.00;102626.94;6177230;23;20028;-76
2022/08/08 07:37:09;;;;;;;4.07;2.60;;;;;;;18.63;100.00;102621.56;6144776;23;20619;-76
2022/08/08 07:39:43;;;;;;;6.30;2.67;;;;;;;18.70;100.00;102628.69;6179154;23;20028;-77
2022/08/08 07:42:24;;;;;;;13.70;3.00;;;;;;;18.79;100.00;102635.78;6128394;23;20430;-76
2022/08/08 07:45:03;;;;;;;4.15;2.10;;;;;;;18.87;100.00;102631.34;6146623;23;20458;-77
2022/08/08 07:47:34;;;;;;;4.57;2.55;;;;;;;18.95;100.00;102636.66;6179297;23;20024;-77
2022/08/08 07:50:09;;;;;;;6.75;2.72;;;;;;;19.01;100.00;102633.06;6173478;23;20017;-77
2022/08/08 07:52:45;;;;;;;5.95;2.30;;;;;;;19.08;100.00;102629.50;6179445;23;20025;-76
2022/08/08 07:55:25;;;;;;;5.57;2.03;;;;;;;19.15;100.00;102649.03;6176902;23;20162;-77
2022/08/08 07:58:37;;;;;;;4.60;1.40;;;;;;;19.20;100.00;102652.59;6161413;23;20351;-76
2022/08/08 08:01:12;;;;;;;7.00;1.80;;;;;;;19.27;100.00;102643.66;6115572;23;20055;-76
2022/08/08 08:04:03;;;;;;;3.83;2.05;;;;;;;19.36;100.00;102643.63;6180562;23;20020;-77
2022/08/08 08:06:34;;;;;;;5.80;2.50;;;;;;;19.43;100.00;102640.03;6143221;23;20025;-76
2022/08/08 08:09:23;;;;;;;3.58;1.90;;;;;;;19.55;100.00;102648.88;6146149;23;20496;-76
2022/08/08 08:11:55;;;;;;;5.43;1.52;;;;;;;19.63;100.00;102647.03;6138200;23;20028;-76
2022/08/08 08:14:57;;;;;;;3.63;1.40;;;;;;;19.70;100.00;102643.44;6184771;23;20028;-76
2022/08/08 08:17:41;;;;;;;3.78;1.48;;;;;;;19.84;100.00;102648.72;6180387;23;20016;-76
2022/08/08 08:20:20;;;;;;;2.13;1.10;;;;;;;19.94;100.00;102654.88;6177136;23;20575;-76
2022/08/08 08:22:59;;;;;;;2.85;1.20;;;;;;;19.97;100.00;102657.53;6171600;23;20021;-77
2022/08/08 08:25:27;;;;;;;5.82;1.38;;;;;;;20.01;100.00;102648.59;6154753;23;20342;-77
2022/08/08 08:28:15;;;;;;;4.22;1.40;;;;;;;20.09;100.00;102661.91;6133566;23;20358;-76
2022/08/08 08:30:57;;;;;;;3.55;1.48;;;;;;;20.10;100.00;102666.38;6172643;23;20352;-76
2022/08/08 08:33:27;;;;;;;3.08;1.17;;;;;;;20.14;100.00;102666.31;6179653;23;20098;-77
2022/08/08 08:35:58;;;;;;;1.10;0.98;;;;;;;20.21;100.00;102661.81;6118253;23;20025;-76
2022/08/08 08:38:47;;;;;;;3.60;1.73;;;;;;;20.27;100.00;102660.88;6153806;23;20021;-76
2022/08/08 08:41:18;;;;;;;2.70;1.80;;;;;;;20.31;100.00;102668.00;6176488;23;20017;-76
2022/08/08 08:43:52;;;;;;;7.35;1.77;;;;;;;20.33;100.00;102661.72;6139184;23;20350;-76
2022/08/08 08:46:42;;;;;;;3.40;1.30;;;;;;;20.36;100.00;102666.13;6165299;23;20017;-77
2022/08/08 08:49:19;;;;;;;2.70;1.10;;;;;;;20.36;100.00;102671.50;6145371;23;20055;-76
2022/08/08 08:51:57;;;;;;;2.90;1.40;;;;;;;20.37;100.00;102667.94;6172570;23;20024;-77
2022/08/08 08:54:33;;;;;;;3.50;1.63;;;;;;;20.38;100.00;102675.94;6177919;23;20047;-77
2022/08/08 08:57:07;;;;;;;45.90;5.78;;;;;;;20.42;100.00;102671.47;6175822;23;20031;-77
2022/08/08 08:59:53;;;;;;;4.32;1.80;;;;;;;20.60;100.00;102676.69;6164833;23;20028;-76
2022/08/08 09:02:36;;;;;;;2.05;1.35;;;;;;;20.74;100.00;102667.63;6175286;23;20017;-76
2022/08/08 09:05:12;;;;;;;2.78;1.10;;;;;;;20.79;100.00;102681.81;6177301;23;20025;-76
2022/08/08 09:08:03;;;;;;;1.73;1.20;;;;;;;20.79;100.00;102676.47;6178129;23;20029;-76
2022/08/08 09:10:46;;;;;;;2.22;1.10;;;;;;;20.75;98.91;102677.41;6177842;23;20021;-76
2022/08/08 09:13:20;;;;;;;4.95;0.95;;;;;;;20.68;97.54;102681.06;6182282;23;20044;-76
2022/08/08 09:15:56;;;;;;;1.95;1.00;;;;;;;20.64;98.02;102677.50;6144229;23;20021;-76
2022/08/08 09:18:34;;;;;;;1.10;1.00;;;;;;;20.59;97.41;102680.22;6147269;23;20021;-76
2022/08/08 09:21:04;;;;;;;4.85;1.00;;;;;;;20.51;96.79;102687.44;6155333;23;20035;-76
2022/08/08 09:23:54;;;;;;;9.68;1.83;;;;;;;20.47;97.16;102692.81;6114620;23;20043;-76
2022/08/08 09:26:56;;;;;;;2.15;0.90;;;;;;;20.42;95.76;102684.84;6177241;23;20025;-76
2022/08/08 09:29:24;;;;;;;;;;;;;;;20.42;94.98;102682.16;6174990;23;20016;-75
2022/08/08 09:32:04;;;;;;;1.38;0.90;;;;;;;20.43;96.31;102690.19;6181347;23;19916;-76
2022/08/08 09:34:48;;;;;;;3.60;1.17;;;;;;;20.43;96.66;102695.56;6180795;23;20390;-76
2022/08/08 09:37:27;;;;;;;1.90;1.00;;;;;;;20.47;97.24;102698.19;6147868;23;20017;-76
2022/08/08 09:40:21;;;;;;;3.38;1.35;;;;;;;20.44;97.40;102694.63;6171041;23;20024;-77
2022/08/08 09:43:08;;;;;;;2.72;1.40;;;;;;;20.41;97.96;102693.75;6187905;23;20025;-77
2022/08/08 09:46:02;;;;;;;2.05;0.90;;;;;;;20.38;98.52;102689.34;6165923;23;20017;-78
2022/08/08 09:48:37;;;;;;;3.53;1.30;;;;;;;20.41;98.88;102691.09;6182674;23;20017;-78
2022/08/08 09:51:14;;;;;;;4.60;1.20;;;;;;;20.44;98.82;102685.72;6188290;23;20044;-77
2022/08/08 09:53:48;;;;;;;2.50;0.90;;;;;;;20.46;98.50;102691.94;6177026;23;20043;-79
2022/08/08 09:56:38;;;;;;;2.13;1.40;;;;;;;20.50;98.61;102696.38;6160226;23;20451;-78
2022/08/08 09:59:12;;;;;;;1.23;0.75;;;;;;;20.55;98.02;102697.22;6188723;23;20474;-77
2022/08/08 10:02:02;;;;;;;3.90;1.60;;;;;;;20.57;97.69;102695.41;6159181;23;20023;-77
2022/08/08 10:04:42;;;;;;;1.83;1.20;;;;;;;20.61;98.29;102694.50;6183195;23;20231;-77
2022/08/08 10:07:18;;;;;;;4.10;1.08;;;;;;;20.68;98.08;102694.44;6130328;23;20025;-77
2022/08/08 10:09:51;;;;;;;9.55;1.60;;;;;;;20.71;97.61;102694.44;6121154;23;20230;-77
2022/08/08 10:12:34;;;;;;;4.18;1.10;;;;;;;20.76;97.74;102700.63;6151328;23;20120;-77
2022/08/08 10:15:23;;;;;;;1.92;1.00;;;;;;;20.86;97.98;102685.34;6181169;23;20025;-77
2022/08/08 10:17:54;;;;;;;2.38;1.02;;;;;;;20.93;97.57;102695.09;6174882;23;20025;-77
2022/08/08 10:20:42;;;;;;;3.30;0.80;;;;;;;20.97;97.51;102689.69;6169586;23;20025;-77
2022/08/08 10:23:43;;;;;;;4.20;1.17;;;;;;;21.02;96.98;102695.88;6171858;23;20021;-77
2022/08/08 10:26:46;;;;;;;2.85;0.88;;;;;;;21.09;97.41;102693.13;6175652;23;20473;-77
2022/08/08 10:29:47;;;;;;;2.13;1.10;;;;;;;21.07;96.79;102697.63;6165676;23;20017;-76
2022/08/08 10:32:31;;;;;;;3.22;1.17;;;;;;;20.97;96.73;102699.53;6163840;23;20005;-78
2022/08/08 10:35:14;;;;;;;3.42;1.10;;;;;;;20.90;97.01;102696.00;6185564;23;20024;-78
2022/08/08 10:38:04;;;;;;;3.72;0.90;;;;;;;20.85;97.24;102692.50;6187996;23;20477;-78
2022/08/08 10:40:37;;;;;;;6.07;1.10;;;;;;;20.83;97.64;102689.84;6180299;23;20338;-78
2022/08/08 10:43:06;;;;;;;3.53;0.98;;;;;;;20.82;97.67;102692.53;6184184;23;20043;-77
2022/08/08 10:45:42;;;;;;;3.35;1.13;;;;;;;20.77;98.03;102703.28;6177854;23;20219;-77
2022/08/08 10:48:35;;;;;;;3.15;1.35;;;;;;;20.77;98.15;102697.03;6157634;23;20013;-77
2022/08/08 10:51:26;;;;;;;2.08;1.00;;;;;;;20.77;98.74;102687.19;6184594;23;20017;-77
2022/08/08 10:54:07;;;;;;;2.58;1.17;;;;;;;20.78;99.04;102691.66;6182109;23;20020;-77
2022/08/08 10:56:37;;;;;;;2.45;0.90;;;;;;;20.79;98.72;102684.50;6147894;23;20043;-78
2022/08/08 10:59:10;;;;;;;2.85;1.25;;;;;;;20.78;98.76;102696.16;6144338;23;20032;-76
2022/08/08 11:01:45;;;;;;;2.40;1.30;;;;;;;20.78;98.97;102696.16;6154087;23;20028;-76
2022/08/08 11:04:22;;;;;;;3.80;1.20;;;;;;;20.82;99.89;102693.41;6174218;23;20032;-79
2022/08/08 11:07:06;;;;;;;3.53;1.05;;;;;;;20.91;100.00;102700.47;6186598;23;20017;-77
2022/08/08 11:09:45;;;;;;;2.35;1.20;;;;;;;20.89;99.12;102694.25;6176297;23;20028;-78
2022/08/08 11:12:14;;;;;;;2.53;1.30;;;;;;;20.76;99.19;102693.47;6174305;23;20032;-78
2022/08/08 11:14:53;;;;;;;1.75;1.10;;;;;;;20.75;99.26;102690.81;6150148;23;20021;-77
2022/08/08 11:17:25;;;;;;;2.15;1.20;;;;;;;20.75;99.97;102701.53;6165502;23;20020;-78
2022/08/08 11:20:20;;;;;;;2.80;0.95;;;;;;;20.77;100.00;102694.34;6155097;23;20024;-77
2022/08/08 11:23:01;;;;;;;1.20;0.90;;;;;;;20.72;99.70;102691.75;6161427;23;20135;-77
2022/08/08 11:25:33;;;;;;;0.80;0.80;;;;;;;20.71;99.90;102703.34;6179199;23;20017;-78
2022/08/08 11:28:25;;;;;;;2.58;1.05;;;;;;;20.68;99.48;102705.16;6174509;23;20025;-77
2022/08/08 11:31:00;;;;;;;2.58;1.05;;;;;;;20.67;99.49;102701.59;6119361;23;20021;-78
2022/08/08 11:33:33;;;;;;;1.65;1.40;;;;;;;20.68;99.86;102698.03;6163829;23;20017;-77
2022/08/08 11:36:20;;;;;;;1.95;1.38;;;;;;;20.69;99.33;102697.13;6182310;23;20020;-77
2022/08/08 11:38:51;;;;;;;1.95;1.00;;;;;;;20.70;99.06;102698.00;6187553;23;20043;-77
2022/08/08 11:41:25;;;;;;;4.95;1.20;;;;;;;20.73;99.04;102697.97;6146533;23;20616;-79
2022/08/08 11:44:00;;;;;;;3.35;1.30;;;;;;;20.73;99.44;102695.28;6164536;23;20012;-76
2022/08/08 11:46:30;;;;;;;1.93;1.47;;;;;;;20.81;99.09;102704.13;6152376;23;20028;-77
2022/08/08 11:49:07;;;;;;;1.95;1.23;;;;;;;20.86;98.83;102704.97;6139452;23;20124;-77
2022/08/08 11:51:37;;;;;;;2.42;1.00;;;;;;;20.95;99.16;102704.00;6158394;23;20016;-77
2022/08/08 11:54:33;;;;;;;1.27;0.90;;;;;;;20.95;98.04;102696.84;6186489;23;20343;-77
2022/08/08 11:57:16;;;;;;;3.50;0.95;;;;;;;20.89;98.25;102699.59;6161701;23;20020;-77
2022/08/08 11:59:55;;;;;;;4.03;1.02;;;;;;;20.85;98.29;102697.88;6182765;23;20377;-77
2022/08/08 12:02:54;;;;;;;2.58;1.00;;;;;;;20.89;98.51;102699.59;6164644;23;20254;-76
2022/08/08 12:05:37;;;;;;;3.10;0.95;;;;;;;20.96;98.36;102701.31;6165779;23;20028;-77
2022/08/08 12:08:06;;;;;;;1.05;0.95;;;;;;;21.02;98.25;102695.88;6189761;23;20350;-78
2022/08/08 12:10:51;;;;;;;8.00;1.85;;;;;;;21.03;97.65;102692.28;6129934;23;20044;-79
2022/08/08 12:13:24;;;;;;;2.88;1.30;;;;;;;20.99;98.14;102695.91;6181117;23;20017;-79
2022/08/08 12:16:19;;;;;;;2.03;1.02;;;;;;;21.02;97.44;102700.38;6166829;23;20029;-79
2022/08/08 12:19:01;;;;;;;2.45;1.00;;;;;;;21.06;97.76;102695.81;6180111;23;20021;-78
2022/08/08 12:21:33;;;;;;;1.75;1.05;;;;;;;21.10;97.96;102698.47;6107989;23;20020;-78
2022/08/08 12:24:22;;;;;;;1.45;0.88;;;;;;;21.19;97.68;102705.50;6186258;23;20020;-77
2022/08/08 12:26:55;;;;;;;4.07;1.13;;;;;;;21.26;97.89;102692.94;6164551;23;20017;-77
2022/08/08 12:29:25;;;;;;;1.58;1.27;;;;;;;21.32;97.73;102699.13;6177124;23;20335;-77
2022/08/08 12:32:12;;;;;;;3.45;1.30;;;;;;;21.37;97.29;102699.03;6184334;23;20017;-77
2022/08/08 12:34:54;;;;;;;4.93;1.55;;;;;;;21.40;96.69;102691.84;6168044;23;20021;-77
2022/08/08 12:37:29;;;;;;;1.25;1.05;;;;;;;21.42;96.07;102684.66;6131136;23;20028;-77
2022/08/08 12:40:39;;;;;;;3.50;1.15;;;;;;;21.45;94.83;102694.50;6185059;23;20166;-77
2022/08/08 12:43:29;;;;;;;1.08;0.90;;;;;;;21.50;95.25;102691.78;6146760;23;20022;-77
2022/08/08 12:46:17;;;;;;;3.53;1.45;;;;;;;21.54;95.69;102690.81;6153509;23;20028;-78
2022/08/08 12:48:55;;;;;;;1.65;1.00;;;;;;;21.71;96.22;102686.09;6151055;23;20074;-77